Terminal Aerodrome Forecast
Issued by NWS

Home | Current Version | Previous Version | Text Only | Print | Product List | Glossary On
Versions: 1 2 3 4 5 6 7 8 9 10 11 12 13 14 15 16 17 18 19 20 21 22 23 24 25 26 27 28
000
FTPA31 PHFO 161122
TAFHOG
TAF
PHOG 161122Z 1612/1712 05008KT P6SM VCSH SCT030
     FM162000 05016G23KT P6SM VCSH SCT030 SCT050
     FM170500 06010KT P6SM FEW030 SCT040
     AMD LTD TO VIS AND WIND TIL 161600=

USA.gov is the U.S. government's official web portal to all federal, state and local government web resources and services.